Time;durP1;ratioP1;P1;durP2;ratioP2;P2;SDS_P1;SDS_P2;PMS_P1;PMS_P2;Temp;Humidity;BMP_temperature;BMP_pressure;BME280_temperature;BME280_humidity;BME280_pressure;Samples;Min_cycle;Max_cycle;Signal;HPM_P1;HPM_P2
2023/08/11 00:00:00;;;;;;;7.67;2.13;;;23.50;86.10;;;;;;5040577;28;20199;-63
2023/08/11 00:02:40;;;;;;;2.80;1.80;;;23.50;86.40;;;;;;5040366;28;20207;-63
2023/08/11 00:05:08;;;;;;;4.20;2.03;;;23.50;86.70;;;;;;5043395;28;20239;-63
2023/08/11 00:07:35;;;;;;;3.13;1.90;;;23.40;86.80;;;;;;5042810;28;20628;-63
2023/08/11 00:10:03;;;;;;;3.43;2.00;;;23.40;87.20;;;;;;5041775;28;20272;-63
2023/08/11 00:12:30;;;;;;;3.43;2.50;;;23.30;87.30;;;;;;5044723;28;20624;-63
2023/08/11 00:14:57;;;;;;;2.33;2.10;;;23.30;87.50;;;;;;5040251;28;20219;-61
2023/08/11 00:17:24;;;;;;;3.33;2.30;;;23.30;87.60;;;;;;5043507;28;20203;-60
2023/08/11 00:19:51;;;;;;;2.87;1.97;;;23.30;87.80;;;;;;5041662;28;20286;-63
2023/08/11 00:22:17;;;;;;;2.00;1.70;;;23.30;87.90;;;;;;5042302;28;20647;-63
2023/08/11 00:24:44;;;;;;;2.27;2.07;;;23.30;88.70;;;;;;5045079;28;20298;-63
2023/08/11 00:27:11;;;;;;;2.93;2.10;;;23.20;88.20;;;;;;5038707;28;20198;-63
2023/08/11 00:29:38;;;;;;;3.93;1.77;;;23.20;88.40;;;;;;5049999;28;20652;-63
2023/08/11 00:32:05;;;;;;;1.97;1.87;;;23.20;88.60;;;;;;5037127;28;20213;-63
2023/08/11 00:34:33;;;;;;;2.47;2.07;;;23.10;88.80;;;;;;5039047;28;20203;-64
2023/08/11 00:37:00;;;;;;;2.60;2.40;;;23.10;88.90;;;;;;5041012;28;20620;-63
2023/08/11 00:39:27;;;;;;;2.20;2.00;;;23.00;89.00;;;;;;5045316;28;20639;-63
2023/08/11 00:41:55;;;;;;;2.83;2.03;;;23.10;89.20;;;;;;5042926;28;20203;-63
2023/08/11 00:44:22;;;;;;;1.97;1.77;;;23.00;89.30;;;;;;5043186;28;20213;-63
2023/08/11 00:46:49;;;;;;;2.10;1.90;;;23.00;89.40;;;;;;5044834;28;20294;-63
2023/08/11 00:49:17;;;;;;;3.23;1.90;;;23.00;89.60;;;;;;5041021;28;20222;-63
2023/08/11 00:51:44;;;;;;;3.20;2.00;;;23.00;89.60;;;;;;5045404;28;20211;-63
2023/08/11 00:54:12;;;;;;;2.60;1.80;;;23.00;89.70;;;;;;5042765;28;20517;-63
2023/08/11 00:56:44;;;;;;;2.83;1.60;;;23.10;89.70;;;;;;5044559;28;20219;-63
2023/08/11 00:59:21;;;;;;;2.00;1.90;;;23.00;89.70;;;;;;5041685;28;20191;-63
2023/08/11 01:01:48;;;;;;;7.97;2.23;;;23.00;89.80;;;;;;5042437;28;20234;-63
2023/08/11 01:04:15;;;;;;;3.97;2.30;;;23.00;89.90;;;;;;5045524;28;20237;-63
2023/08/11 01:06:46;;;;;;;3.43;2.00;;;23.00;90.00;;;;;;5043599;28;20293;-63
2023/08/11 01:09:31;;;;;;;18.23;2.70;;;23.00;90.00;;;;;;5042170;28;20695;-63
2023/08/11 01:12:06;;;;;;;2.17;1.97;;;22.90;90.00;;;;;;5039812;28;20238;-63
2023/08/11 01:14:53;;;;;;;4.17;2.53;;;22.90;90.00;;;;;;5045296;28;20209;-63
2023/08/11 01:17:21;;;;;;;3.53;2.17;;;22.80;90.10;;;;;;5039581;28;20187;-63
2023/08/11 01:19:49;;;;;;;3.13;2.00;;;22.80;90.10;;;;;;5043636;28;20218;-63
2023/08/11 01:22:24;;;;;;;2.27;2.00;;;22.80;90.50;;;;;;5045528;28;20200;-63
2023/08/11 01:24:51;;;;;;;2.30;1.80;;;22.80;90.30;;;;;;5041934;28;20209;-63
2023/08/11 01:27:19;;;;;;;3.17;1.80;;;22.70;90.40;;;;;;5039805;28;20655;-63
2023/08/11 01:29:46;;;;;;;3.00;2.10;;;22.70;90.40;;;;;;5038402;28;20191;-63
2023/08/11 01:32:13;;;;;;;2.77;1.37;;;22.70;90.50;;;;;;5042011;28;20207;-63
2023/08/11 01:34:40;;;;;;;3.83;2.30;;;22.80;90.60;;;;;;5049558;28;20191;-63
2023/08/11 01:37:07;;;;;;;2.53;2.07;;;22.70;90.60;;;;;;5039184;28;20332;-63
2023/08/11 01:39:35;;;;;;;2.33;1.90;;;22.70;90.60;;;;;;5039519;28;20286;-63
2023/08/11 01:42:03;;;;;;;5.03;2.50;;;22.70;90.60;;;;;;5039256;28;20286;-63
2023/08/11 01:44:30;;;;;;;3.93;2.17;;;22.70;90.70;;;;;;5040771;28;20218;-63
2023/08/11 01:46:58;;;;;;;2.60;2.40;;;22.60;90.70;;;;;;5038256;28;20213;-63
2023/08/11 01:49:26;;;;;;;2.80;2.57;;;22.60;90.80;;;;;;5040116;28;20199;-63
2023/08/11 01:51:55;;;;;;;3.07;2.63;;;22.60;90.90;;;;;;5043487;28;20218;-63
2023/08/11 01:54:22;;;;;;;4.33;2.43;;;22.60;91.00;;;;;;5040394;28;20231;-63
2023/08/11 01:56:50;;;;;;;4.83;2.63;;;22.50;91.00;;;;;;5045798;28;20658;-63
2023/08/11 01:59:17;;;;;;;4.40;2.67;;;22.50;91.10;;;;;;5039515;28;20198;-63
2023/08/11 02:01:44;;;;;;;2.63;2.13;;;22.40;91.20;;;;;;5047245;28;20231;-64
2023/08/11 02:04:12;;;;;;;3.27;1.93;;;22.40;91.30;;;;;;5047366;28;20250;-63
2023/08/11 02:06:40;;;;;;;5.60;2.90;;;22.40;91.40;;;;;;5042833;28;20225;-63
2023/08/11 02:09:09;;;;;;;2.23;2.03;;;22.40;91.50;;;;;;5042276;28;20238;-63
2023/08/11 02:11:37;;;;;;;2.80;2.60;;;22.30;91.60;;;;;;5047204;28;20230;-63
2023/08/11 02:14:05;;;;;;;3.43;2.77;;;22.30;91.70;;;;;;5038105;28;20233;-63
2023/08/11 02:16:33;;;;;;;4.93;2.60;;;22.20;91.80;;;;;;5056467;28;20316;-63
2023/08/11 02:19:01;;;;;;;4.03;2.70;;;22.20;92.00;;;;;;5041788;28;20199;-63
2023/08/11 02:21:28;;;;;;;4.70;2.70;;;22.20;92.10;;;;;;5042893;28;20274;-63
2023/08/11 02:23:55;;;;;;;4.40;2.07;;;22.20;92.10;;;;;;5038044;28;20245;-63
2023/08/11 02:26:22;;;;;;;2.57;2.37;;;22.20;92.10;;;;;;5043604;28;20553;-63
2023/08/11 02:28:49;;;;;;;4.00;2.50;;;22.10;92.10;;;;;;5039397;28;20199;-63
2023/08/11 02:31:17;;;;;;;3.10;2.33;;;22.10;92.10;;;;;;5042548;28;20214;-63
2023/08/11 02:33:46;;;;;;;5.07;3.30;;;22.10;92.20;;;;;;5044389;28;20706;-63
2023/08/11 02:36:16;;;;;;;2.53;2.33;;;22.00;92.30;;;;;;5042581;28;20219;-63
2023/08/11 02:38:44;;;;;;;3.17;2.40;;;22.00;92.40;;;;;;5041475;28;20211;-63
2023/08/11 02:41:11;;;;;;;3.93;2.23;;;22.00;92.40;;;;;;5042581;28;20230;-63
2023/08/11 02:43:38;;;;;;;7.20;2.83;;;22.00;92.40;;;;;;5041399;28;20261;-63
2023/08/11 02:46:05;;;;;;;3.73;3.07;;;21.90;92.40;;;;;;5041397;28;20210;-63
2023/08/11 02:48:38;;;;;;;5.17;3.60;;;22.00;92.50;;;;;;5040065;28;20649;-63
2023/08/11 02:51:05;;;;;;;7.30;3.07;;;21.90;92.50;;;;;;5038180;28;20199;-63
2023/08/11 02:53:33;;;;;;;4.83;3.27;;;21.90;92.60;;;;;;5040146;28;20211;-63
2023/08/11 02:56:06;;;;;;;3.53;3.03;;;21.90;92.60;;;;;;5041021;28;20310;-63
2023/08/11 02:58:33;;;;;;;4.60;3.30;;;21.90;92.50;;;;;;5043007;28;20257;-63
2023/08/11 03:01:01;;;;;;;4.00;3.23;;;21.80;92.50;;;;;;5046698;28;20203;-63
2023/08/11 03:03:28;;;;;;;3.97;3.57;;;21.80;92.50;;;;;;5042575;28;20249;-63
2023/08/11 03:05:56;;;;;;;6.80;3.37;;;21.80;92.70;;;;;;5041616;28;20264;-63
2023/08/11 03:08:24;;;;;;;3.50;2.63;;;21.70;92.80;;;;;;5044041;28;20841;-63
2023/08/11 03:10:51;;;;;;;4.47;3.27;;;21.70;92.90;;;;;;5042058;28;20210;-63
2023/08/11 03:13:28;;;;;;;6.53;3.90;;;21.70;93.00;;;;;;5050108;28;20221;-63
2023/08/11 03:15:56;;;;;;;4.40;3.10;;;21.70;93.10;;;;;;5043475;28;20237;-63
2023/08/11 03:18:23;;;;;;;10.60;3.63;;;21.70;93.10;;;;;;5043323;28;20203;-63
2023/08/11 03:20:53;;;;;;;4.03;3.03;;;21.70;93.00;;;;;;5042400;28;20206;-63
2023/08/11 03:23:37;;;;;;;6.07;3.53;;;21.70;93.00;;;;;;5044552;28;20195;-63
2023/08/11 03:26:04;;;;;;;3.63;3.33;;;21.70;93.00;;;;;;5042047;28;20223;-63
2023/08/11 03:28:32;;;;;;;6.20;3.47;;;21.70;93.10;;;;;;5046566;28;20211;-63
2023/08/11 03:30:59;;;;;;;3.97;3.67;;;21.60;93.10;;;;;;5040141;28;20298;-64
2023/08/11 03:33:27;;;;;;;5.13;3.43;;;21.60;93.20;;;;;;5052420;28;20704;-63
2023/08/11 03:36:03;;;;;;;3.70;3.40;;;21.70;93.30;;;;;;5046498;28;20838;-64
2023/08/11 03:38:30;;;;;;;4.73;4.00;;;21.60;93.20;;;;;;5030323;28;20230;-63
2023/08/11 03:40:57;;;;;;;4.47;3.80;;;21.60;93.30;;;;;;5040155;28;20650;-63
2023/08/11 03:43:24;;;;;;;4.20;3.90;;;21.60;93.40;;;;;;5048263;28;20202;-63
2023/08/11 03:45:51;;;;;;;4.00;3.60;;;21.60;93.40;;;;;;5044937;28;20632;-63
2023/08/11 03:48:19;;;;;;;3.83;3.40;;;21.50;93.40;;;;;;5045071;28;20240;-63
2023/08/11 03:50:46;;;;;;;4.07;3.07;;;21.50;93.40;;;;;;5046524;28;20211;-63
2023/08/11 03:53:14;;;;;;;3.30;2.93;;;21.50;93.40;;;;;;5044172;28;20199;-63
2023/08/11 03:55:47;;;;;;;4.50;3.00;;;21.50;93.10;;;;;;5041629;28;20238;-63
2023/08/11 03:58:15;;;;;;;5.77;4.00;;;21.40;93.00;;;;;;5029451;28;20202;-64
2023/08/11 04:00:44;;;;;;;4.10;3.80;;;21.40;93.00;;;;;;5041513;28;20265;-63
2023/08/11 04:03:14;;;;;;;4.43;3.93;;;21.40;93.30;;;;;;5051469;28;20228;-64
2023/08/11 04:05:42;;;;;;;4.70;3.27;;;21.30;93.50;;;;;;5045261;28;20248;-63
2023/08/11 04:08:11;;;;;;;6.70;4.63;;;21.30;93.60;;;;;;5042923;28;20257;-64
2023/08/11 04:10:38;;;;;;;7.70;4.00;;;21.30;93.80;;;;;;5045458;28;20288;-64
2023/08/11 04:13:05;;;;;;;5.07;4.50;;;21.30;93.90;;;;;;5043134;28;20584;-63
2023/08/11 04:15:33;;;;;;;5.07;4.57;;;21.30;94.00;;;;;;5042068;28;20199;-63
2023/08/11 04:18:00;;;;;;;4.50;4.10;;;21.30;94.00;;;;;;5045529;28;20231;-63
2023/08/11 04:20:28;;;;;;;4.53;4.13;;;21.30;94.00;;;;;;5040788;28;20248;-63
2023/08/11 04:22:56;;;;;;;5.83;4.80;;;21.30;94.10;;;;;;5044401;28;20215;-63
2023/08/11 04:25:24;;;;;;;6.63;4.57;;;21.30;94.10;;;;;;5049851;28;20202;-63
2023/08/11 04:27:51;;;;;;;5.97;4.40;;;21.30;94.20;;;;;;5041432;28;20241;-64
2023/08/11 04:30:18;;;;;;;6.23;4.43;;;21.30;94.20;;;;;;5045842;28;20268;-63
2023/08/11 04:32:50;;;;;;;5.40;4.50;;;21.30;94.20;;;;;;5044755;28;20218;-63
2023/08/11 04:35:18;;;;;;;6.90;4.13;;;21.40;94.30;;;;;;5043852;28;20552;-63
2023/08/11 04:37:45;;;;;;;5.37;4.67;;;21.40;94.30;;;;;;5041736;28;20585;-63
2023/08/11 04:40:15;;;;;;;4.30;3.90;;;21.40;94.30;;;;;;5050214;28;20263;-63
2023/08/11 04:42:44;;;;;;;4.80;4.30;;;21.40;94.30;;;;;;5045699;28;20200;-63
2023/08/11 04:45:18;;;;;;;5.37;4.10;;;21.40;94.30;;;;;;5040236;28;20516;-63
2023/08/11 04:47:45;;;;;;;3.93;3.63;;;21.50;94.20;;;;;;5028305;28;20201;-63
2023/08/11 04:50:18;;;;;;;5.67;3.27;;;21.50;94.20;;;;;;5041215;28;20318;-63
2023/08/11 04:52:48;;;;;;;5.47;3.93;;;21.50;94.20;;;;;;5044760;28;20591;-64
2023/08/11 04:55:15;;;;;;;4.20;3.60;;;21.50;94.20;;;;;;5039984;28;20207;-64
2023/08/11 04:57:43;;;;;;;5.07;3.73;;;21.50;94.20;;;;;;5041255;28;20230;-63
2023/08/11 05:00:14;;;;;;;4.13;3.33;;;21.60;94.10;;;;;;5042253;28;20294;-64
2023/08/11 05:02:41;;;;;;;7.13;3.67;;;21.60;94.10;;;;;;5046523;28;20198;-63
2023/08/11 05:05:09;;;;;;;4.17;3.80;;;21.70;94.20;;;;;;5041373;28;20230;-64
2023/08/11 05:07:37;;;;;;;5.50;4.40;;;21.70;94.20;;;;;;5040191;28;20233;-64
2023/08/11 05:10:05;;;;;;;6.10;3.60;;;21.80;94.20;;;;;;5039312;28;20214;-63
2023/08/11 05:12:32;;;;;;;4.63;3.47;;;21.80;94.20;;;;;;5045483;28;20195;-63
2023/08/11 05:14:59;;;;;;;3.73;3.43;;;21.90;94.50;;;;;;5039838;28;20567;-63
2023/08/11 05:17:27;;;;;;;5.00;3.83;;;21.90;94.20;;;;;;5037062;28;20660;-63
2023/08/11 05:19:54;;;;;;;3.90;3.60;;;22.00;94.20;;;;;;5043856;28;20548;-63
2023/08/11 05:22:21;;;;;;;6.77;4.47;;;22.10;94.20;;;;;;5040436;28;20195;-63
2023/08/11 05:24:48;;;;;;;5.33;3.90;;;22.10;94.20;;;;;;5045281;28;20202;-63
2023/08/11 05:27:15;;;;;;;3.70;3.40;;;22.20;94.30;;;;;;5044060;28;20198;-63
2023/08/11 05:29:47;;;;;;;5.33;3.37;;;22.30;94.30;;;;;;5044368;28;20203;-64
2023/08/11 05:32:14;;;;;;;3.70;2.93;;;22.30;94.20;;;;;;5038132;28;20203;-64
2023/08/11 05:34:41;;;;;;;3.90;3.30;;;22.40;94.20;;;;;;5043853;28;20206;-64
2023/08/11 05:37:08;;;;;;;3.83;3.53;;;22.50;94.20;;;;;;5043765;28;20241;-63
2023/08/11 05:39:38;;;;;;;4.13;3.10;;;22.60;94.20;;;;;;5043371;28;20244;-64
2023/08/11 05:42:07;;;;;;;4.10;3.50;;;22.70;94.10;;;;;;5041529;28;20191;-64
2023/08/11 05:44:35;;;;;;;4.40;3.00;;;22.70;94.00;;;;;;5041816;28;20245;-63
2023/08/11 05:47:02;;;;;;;3.77;3.30;;;22.90;94.00;;;;;;5044406;28;20672;-63
2023/08/11 05:49:29;;;;;;;3.67;3.27;;;23.00;93.90;;;;;;5039487;28;20211;-64
2023/08/11 05:51:56;;;;;;;5.77;3.00;;;23.10;93.80;;;;;;5038330;28;20207;-64
2023/08/11 05:54:23;;;;;;;9.33;3.37;;;23.20;93.70;;;;;;5043312;28;20628;-63
2023/08/11 05:56:52;;;;;;;3.30;3.00;;;23.30;93.60;;;;;;5038228;28;20230;-63
2023/08/11 05:59:21;;;;;;;5.03;2.63;;;23.40;93.40;;;;;;5039404;28;20223;-63
2023/08/11 06:01:48;;;;;;;3.47;2.87;;;23.50;93.30;;;;;;5038591;28;20591;-63
2023/08/11 06:04:16;;;;;;;4.27;3.20;;;23.70;93.20;;;;;;5039092;28;20235;-64
2023/08/11 06:06:43;;;;;;;3.20;2.90;;;23.80;93.00;;;;;;5038694;28;20222;-63
2023/08/11 06:09:10;;;;;;;2.93;2.50;;;24.00;92.80;;;;;;5037476;28;20228;-63
2023/08/11 06:11:37;;;;;;;3.00;2.40;;;24.20;92.60;;;;;;5035945;28;20636;-63
2023/08/11 06:14:04;;;;;;;4.97;2.90;;;24.30;92.50;;;;;;5034689;28;20282;-63
2023/08/11 06:16:31;;;;;;;4.00;3.10;;;24.50;92.30;;;;;;5039100;28;20218;-64
2023/08/11 06:18:58;;;;;;;3.90;3.10;;;24.60;92.10;;;;;;5035422;28;20204;-64
2023/08/11 06:21:25;;;;;;;3.20;2.90;;;24.80;92.00;;;;;;5036322;28;20213;-63
2023/08/11 06:23:53;;;;;;;2.97;2.50;;;24.90;91.60;;;;;;5038318;28;20206;-63
2023/08/11 06:26:20;;;;;;;5.67;3.00;;;25.00;91.30;;;;;;5036561;28;20202;-61
2023/08/11 06:28:48;;;;;;;4.07;2.97;;;25.10;90.90;;;;;;5037127;28;20305;-61
2023/08/11 06:31:18;;;;;;;4.70;2.77;;;25.20;90.50;;;;;;5036343;28;20218;-61
2023/08/11 06:33:46;;;;;;;4.70;3.23;;;25.30;90.30;;;;;;5043984;28;20198;-61
2023/08/11 06:36:13;;;;;;;3.97;2.97;;;25.40;90.40;;;;;;5046112;28;20197;-61
2023/08/11 06:38:40;;;;;;;3.60;3.30;;;25.50;90.10;;;;;;5044153;28;20231;-61
2023/08/11 06:41:07;;;;;;;5.10;3.53;;;25.60;89.80;;;;;;5044102;28;20191;-61
2023/08/11 06:43:34;;;;;;;3.63;2.70;;;25.70;90.00;;;;;;5043630;28;20217;-61
2023/08/11 06:46:01;;;;;;;6.67;2.90;;;25.80;89.80;;;;;;5044390;28;20665;-62
2023/08/11 06:48:28;;;;;;;3.30;2.83;;;25.90;89.20;;;;;;5049460;28;20589;-62
2023/08/11 06:50:58;;;;;;;5.67;2.90;;;26.10;89.00;;;;;;5043549;28;20198;-62
2023/08/11 06:53:25;;;;;;;3.70;2.93;;;26.30;88.30;;;;;;5047170;28;20202;-62
2023/08/11 06:55:52;;;;;;;4.60;2.73;;;26.40;87.80;;;;;;5047292;28;20202;-62
2023/08/11 06:58:19;;;;;;;3.30;2.63;;;26.60;87.40;;;;;;5044789;28;20217;-62
2023/08/11 07:00:49;;;;;;;4.20;2.87;;;26.80;86.70;;;;;;5045256;28;20203;-62
2023/08/11 07:03:16;;;;;;;7.30;2.43;;;26.90;86.20;;;;;;5046352;28;20566;-62
2023/08/11 07:05:43;;;;;;;2.53;2.33;;;27.10;85.10;;;;;;5044553;28;20292;-62
2023/08/11 07:08:11;;;;;;;7.53;2.23;;;27.20;83.90;;;;;;5047452;28;20211;-63
2023/08/11 07:10:39;;;;;;;4.13;2.30;;;27.30;82.80;;;;;;5042572;28;20561;-62
2023/08/11 07:13:06;;;;;;;4.23;2.20;;;27.30;83.10;;;;;;5048237;28;20211;-61
2023/08/11 07:15:33;;;;;;;3.27;2.50;;;27.50;83.30;;;;;;5044215;28;20639;-62
2023/08/11 07:18:04;;;;;;;4.13;2.33;;;27.60;83.10;;;;;;5043597;28;20218;-62
2023/08/11 07:20:31;;;;;;;7.43;2.37;;;27.70;82.30;;;;;;5038156;28;20198;-62
2023/08/11 07:22:58;;;;;;;3.40;2.20;;;27.90;81.20;;;;;;5044000;28;20246;-62
2023/08/11 07:25:25;;;;;;;2.63;2.30;;;27.90;80.70;;;;;;5045659;28;20201;-61
2023/08/11 07:27:52;;;;;;;2.30;1.90;;;28.00;80.30;;;;;;5042154;28;20199;-62
2023/08/11 07:30:19;;;;;;;5.53;2.03;;;28.00;79.80;;;;;;5043282;28;20195;-62
2023/08/11 07:32:46;;;;;;;3.50;2.00;;;28.10;80.00;;;;;;5039542;28;20199;-62
2023/08/11 07:35:13;;;;;;;3.23;2.03;;;28.20;80.00;;;;;;5043589;28;20506;-62
2023/08/11 07:37:40;;;;;;;2.07;1.47;;;28.30;79.50;;;;;;5043826;28;20747;-62
2023/08/11 07:40:08;;;;;;;3.37;2.43;;;28.50;78.80;;;;;;5039174;28;20218;-62
2023/08/11 07:42:35;;;;;;;2.87;1.77;;;28.60;78.10;;;;;;5041179;28;20225;-62
2023/08/11 07:45:03;;;;;;;2.13;1.93;;;28.80;77.80;;;;;;5042642;28;20204;-62
2023/08/11 07:47:30;;;;;;;2.53;1.80;;;28.90;77.50;;;;;;5040598;28;20282;-62
2023/08/11 07:49:57;;;;;;;2.73;1.80;;;29.10;76.80;;;;;;5042975;28;20667;-61
2023/08/11 07:52:24;;;;;;;3.13;1.70;;;29.30;76.00;;;;;;5043770;28;20659;-62
2023/08/11 07:54:51;;;;;;;1.60;1.50;;;29.40;74.90;;;;;;5044582;28;20215;-62
2023/08/11 07:57:18;;;;;;;7.37;1.90;;;29.50;73.60;;;;;;5042588;28;20663;-62
2023/08/11 07:59:45;;;;;;;6.73;1.70;;;29.60;73.30;;;;;;5046894;28;20203;-62
2023/08/11 08:02:13;;;;;;;1.87;1.60;;;29.60;73.50;;;;;;5039938;28;20202;-61
2023/08/11 08:04:40;;;;;;;2.90;1.60;;;29.80;73.40;;;;;;5042705;28;20710;-61
2023/08/11 08:07:07;;;;;;;1.93;1.70;;;29.90;72.50;;;;;;5039047;28;20191;-61
2023/08/11 08:09:35;;;;;;;2.80;1.30;;;29.90;69.40;;;;;;5043261;28;20580;-62
2023/08/11 08:12:02;;;;;;;3.00;1.60;;;29.90;70.80;;;;;;5042772;28;20207;-62
2023/08/11 08:14:29;;;;;;;3.37;1.97;;;29.90;70.80;;;;;;5045707;28;20202;-62
2023/08/11 08:16:58;;;;;;;2.93;1.67;;;30.00;70.40;;;;;;5044386;28;20233;-61
2023/08/11 08:19:25;;;;;;;3.23;1.63;;;30.00;70.00;;;;;;5044608;28;20199;-61
2023/08/11 08:21:52;;;;;;;3.47;1.77;;;30.00;69.40;;;;;;5043649;28;20195;-62
2023/08/11 08:24:19;;;;;;;3.83;1.80;;;30.00;68.40;;;;;;5043787;28;20290;-61
2023/08/11 08:26:48;;;;;;;3.17;2.10;;;29.90;68.90;;;;;;5043132;28;20207;-61
2023/08/11 08:29:15;;;;;;;7.63;1.93;;;29.90;67.30;;;;;;5045669;28;20196;-61
2023/08/11 08:31:42;;;;;;;1.80;1.37;;;29.90;67.40;;;;;;5042853;28;20209;-62
2023/08/11 08:34:09;;;;;;;2.33;2.00;;;30.00;68.40;;;;;;5047048;28;20207;-61
2023/08/11 08:36:36;;;;;;;2.10;1.50;;;30.20;68.50;;;;;;5042743;28;20205;-61
2023/08/11 08:39:03;;;;;;;3.47;1.40;;;30.40;68.00;;;;;;5045170;28;20202;-62
2023/08/11 08:41:38;;;;;;;3.30;1.73;;;30.50;66.20;;;;;;5045225;28;20207;-61
2023/08/11 08:44:05;;;;;;;1.30;1.20;;;30.60;66.20;;;;;;5040402;28;20584;-62
2023/08/11 08:46:33;;;;;;;2.20;1.50;;;30.70;64.90;;;;;;5042959;28;20282;-61
2023/08/11 08:49:29;;;;;;;1.73;1.40;;;30.80;64.90;;;;;;5041507;28;20636;-62
2023/08/11 08:52:00;;;;;;;2.50;1.60;;;30.90;64.30;;;;;;5041644;28;20195;-62
2023/08/11 08:54:32;;;;;;;4.00;1.63;;;30.90;62.60;;;;;;5041527;28;20210;-62
2023/08/11 08:57:03;;;;;;;1.70;1.60;;;31.00;60.40;;;;;;5042037;28;20268;-61
2023/08/11 08:59:30;;;;;;;2.50;1.47;;;31.00;60.80;;;;;;5038946;28;20203;-62
2023/08/11 09:01:58;;;;;;;1.80;1.27;;;31.00;61.60;;;;;;5038400;28;20265;-61
2023/08/11 09:04:27;;;;;;;2.67;1.47;;;31.10;62.20;;;;;;5044754;28;20247;-61
2023/08/11 09:06:56;;;;;;;1.67;1.57;;;31.30;62.10;;;;;;5037716;28;20200;-61
2023/08/11 09:09:23;;;;;;;2.83;1.37;;;31.40;61.80;;;;;;5037994;28;20540;-61
2023/08/11 09:11:50;;;;;;;3.13;1.80;;;31.40;61.50;;;;;;5036805;28;20203;-62
2023/08/11 09:14:20;;;;;;;3.90;1.50;;;31.30;61.20;;;;;;5040951;28;20282;-61
2023/08/11 09:16:49;;;;;;;1.70;1.60;;;31.20;61.90;;;;;;5042574;28;20687;-61
2023/08/11 09:19:17;;;;;;;1.50;1.40;;;31.30;62.40;;;;;;5035159;28;20214;-62
2023/08/11 09:21:45;;;;;;;1.67;1.43;;;31.40;61.00;;;;;;5041345;28;20202;-61
2023/08/11 09:24:13;;;;;;;1.53;1.43;;;31.40;60.00;;;;;;5038357;28;20640;-62
2023/08/11 09:26:43;;;;;;;1.73;1.50;;;31.40;56.20;;;;;;5041799;28;20205;-61
2023/08/11 09:29:11;;;;;;;3.13;1.50;;;31.30;57.50;;;;;;5043600;28;20194;-62
2023/08/11 09:31:39;;;;;;;1.30;1.20;;;31.40;58.60;;;;;;5039638;28;20269;-61
2023/08/11 09:34:12;;;;;;;1.60;1.50;;;31.40;59.00;;;;;;5044492;28;20628;-62
2023/08/11 09:36:40;;;;;;;1.73;1.57;;;31.60;58.70;;;;;;5044857;28;20209;-62
2023/08/11 09:39:08;;;;;;;4.17;1.73;;;31.80;57.10;;;;;;5039296;28;20222;-62
2023/08/11 09:41:47;;;;;;;4.67;1.60;;;31.80;57.60;;;;;;5043007;28;20194;-62
2023/08/11 09:44:15;;;;;;;2.43;1.40;;;31.90;57.50;;;;;;5046781;28;20667;-62
2023/08/11 09:46:43;;;;;;;2.30;1.50;;;32.00;57.80;;;;;;5041361;28;20596;-62
2023/08/11 09:49:10;;;;;;;1.87;1.30;;;32.30;57.70;;;;;;5041363;28;20296;-61
2023/08/11 09:51:38;;;;;;;2.33;1.40;;;32.50;57.00;;;;;;5044560;28;20207;-61
2023/08/11 09:54:08;;;;;;;3.53;1.70;;;32.60;56.20;;;;;;5041218;28;20227;-62
2023/08/11 09:56:40;;;;;;;3.00;1.40;;;32.70;55.60;;;;;;5043265;28;20208;-61
2023/08/11 09:59:12;;;;;;;3.53;1.90;;;32.80;55.40;;;;;;5040502;28;20747;-62
2023/08/11 10:01:42;;;;;;;4.97;1.80;;;32.90;55.60;;;;;;5039320;28;20199;-62
2023/08/11 10:04:17;;;;;;;3.43;1.70;;;33.00;55.60;;;;;;5044989;28;20600;-61
2023/08/11 10:06:50;;;;;;;2.70;1.47;;;33.10;55.20;;;;;;5040317;28;20206;-62
2023/08/11 10:09:23;;;;;;;2.93;1.70;;;33.20;53.90;;;;;;5043336;28;20296;-61
2023/08/11 10:11:51;;;;;;;2.00;1.70;;;33.10;54.10;;;;;;5039413;28;20203;-62
2023/08/11 10:14:20;;;;;;;2.27;1.60;;;33.00;54.40;;;;;;5041187;28;20194;-62
2023/08/11 10:16:48;;;;;;;2.03;1.63;;;33.00;53.90;;;;;;5039143;28;20195;-61
2023/08/11 10:19:16;;;;;;;3.57;1.90;;;32.90;53.50;;;;;;5047470;28;20785;-62
2023/08/11 10:21:43;;;;;;;3.20;1.70;;;32.90;54.60;;;;;;5037418;28;20280;-61
2023/08/11 10:24:10;;;;;;;2.73;1.63;;;33.00;53.70;;;;;;5040385;28;20206;-61
2023/08/11 10:26:38;;;;;;;4.23;1.70;;;33.10;53.00;;;;;;5043272;28;20257;-62
2023/08/11 10:29:05;;;;;;;2.60;1.60;;;33.10;54.10;;;;;;5039128;28;20206;-61
2023/08/11 10:31:33;;;;;;;1.50;1.40;;;33.20;54.40;;;;;;5036875;28;20203;-61
2023/08/11 10:34:06;;;;;;;3.23;2.20;;;33.30;54.10;;;;;;5041044;28;20644;-61
2023/08/11 10:36:33;;;;;;;1.57;1.47;;;33.50;52.70;;;;;;5037809;28;20202;-62
2023/08/11 10:39:05;;;;;;;3.10;1.67;;;33.50;52.30;;;;;;5035468;28;20238;-62
2023/08/11 10:41:33;;;;;;;1.70;1.60;;;33.50;52.00;;;;;;5038856;28;20226;-61
2023/08/11 10:44:00;;;;;;;3.83;2.00;;;33.60;52.70;;;;;;5040563;28;20257;-61
2023/08/11 10:46:31;;;;;;;4.43;1.70;;;33.70;52.90;;;;;;5038314;28;20237;-61
2023/08/11 10:49:03;;;;;;;1.43;1.33;;;33.80;52.50;;;;;;5035167;28;20257;-62
2023/08/11 10:51:36;;;;;;;2.97;1.83;;;33.90;52.00;;;;;;5035201;28;20257;-62
2023/08/11 10:54:18;;;;;;;1.50;1.40;;;34.00;51.90;;;;;;5034545;28;20282;-61
2023/08/11 10:56:45;;;;;;;4.00;1.47;;;34.00;51.30;;;;;;5038659;28;20203;-62
2023/08/11 10:59:15;;;;;;;3.17;1.63;;;34.00;51.40;;;;;;5035988;28;20300;-62
2023/08/11 11:01:47;;;;;;;3.33;1.70;;;33.90;51.70;;;;;;5038322;28;20278;-62
2023/08/11 11:04:16;;;;;;;2.83;1.47;;;33.80;51.80;;;;;;5044628;28;20242;-61
2023/08/11 11:06:44;;;;;;;2.27;1.97;;;33.90;51.60;;;;;;5038649;28;20207;-62
2023/08/11 11:09:13;;;;;;;8.13;1.80;;;33.90;51.10;;;;;;5039107;28;20210;-61
2023/08/11 11:11:40;;;;;;;1.53;1.43;;;33.90;51.80;;;;;;5042240;28;20199;-62
2023/08/11 11:14:09;;;;;;;3.00;1.90;;;33.90;51.70;;;;;;5038144;28;20229;-61
2023/08/11 11:16:36;;;;;;;4.80;1.67;;;34.00;51.50;;;;;;5040930;28;20210;-62
2023/08/11 11:19:06;;;;;;;2.57;1.40;;;34.00;50.90;;;;;;5042952;28;20207;-61
2023/08/11 11:21:34;;;;;;;2.00;1.80;;;34.00;50.80;;;;;;5046104;28;20199;-62
2023/08/11 11:24:01;;;;;;;4.73;1.93;;;33.80;50.00;;;;;;5043199;28;20198;-62
2023/08/11 11:26:30;;;;;;;2.27;1.50;;;33.50;50.80;;;;;;5046389;28;20638;-61
2023/08/11 11:28:58;;;;;;;4.17;1.90;;;33.40;51.20;;;;;;5044762;28;20214;-62
2023/08/11 11:31:31;;;;;;;3.50;1.97;;;33.30;51.30;;;;;;5043345;28;20512;-61
2023/08/11 11:33:58;;;;;;;1.97;1.77;;;33.30;52.10;;;;;;5047427;28;20536;-62
2023/08/11 11:36:25;;;;;;;4.67;1.77;;;33.30;51.80;;;;;;5042973;28;20239;-61
2023/08/11 11:38:52;;;;;;;3.07;1.77;;;33.30;51.20;;;;;;5045073;28;20553;-61
2023/08/11 11:41:21;;;;;;;1.80;1.70;;;33.30;51.80;;;;;;5044613;28;20278;-62
2023/08/11 11:43:49;;;;;;;2.20;1.90;;;33.50;51.30;;;;;;5043834;28;20191;-61
2023/08/11 11:46:19;;;;;;;1.67;1.57;;;33.50;51.60;;;;;;5046301;28;20199;-61
2023/08/11 11:48:53;;;;;;;4.30;2.00;;;33.50;51.20;;;;;;5043558;28;20256;-61
2023/08/11 11:51:24;;;;;;;3.23;2.10;;;33.50;51.40;;;;;;5042327;28;20676;-61
2023/08/11 11:53:54;;;;;;;2.13;1.83;;;33.60;51.50;;;;;;5045601;28;20199;-62
2023/08/11 11:56:21;;;;;;;2.13;1.63;;;33.70;51.80;;;;;;5042173;28;20750;-61
2023/08/11 11:58:49;;;;;;;1.60;1.50;;;33.80;51.90;;;;;;5040917;28;20325;-61
2023/08/11 12:01:29;;;;;;;2.90;1.93;;;33.90;52.00;;;;;;5047178;28;20198;-61
2023/08/11 12:04:00;;;;;;;3.97;1.93;;;34.00;51.40;;;;;;5043986;28;20238;-62
2023/08/11 12:06:28;;;;;;;2.10;1.90;;;34.00;50.20;;;;;;5038024;28;20205;-62
2023/08/11 12:09:03;;;;;;;3.57;1.80;;;34.00;50.40;;;;;;5041137;28;20293;-61
2023/08/11 12:11:31;;;;;;;3.53;1.93;;;33.90;50.10;;;;;;5041274;28;20219;-61
2023/08/11 12:13:59;;;;;;;3.40;1.77;;;33.90;50.80;;;;;;5044334;28;20545;-62
2023/08/11 12:16:27;;;;;;;2.23;2.00;;;33.90;50.70;;;;;;5036963;28;20656;-62
2023/08/11 12:19:00;;;;;;;4.60;1.80;;;34.00;50.40;;;;;;5036532;28;20301;-61
2023/08/11 12:21:27;;;;;;;2.40;1.97;;;34.00;51.00;;;;;;5036037;28;20211;-62
2023/08/11 12:23:55;;;;;;;3.00;1.90;;;34.00;51.90;;;;;;5040197;28;20227;-62
2023/08/11 12:26:22;;;;;;;3.40;1.60;;;34.00;51.70;;;;;;5041726;28;20195;-62
2023/08/11 12:28:49;;;;;;;4.43;2.00;;;34.00;51.70;;;;;;5037667;28;20199;-62
2023/08/11 12:31:16;;;;;;;2.93;1.77;;;34.10;51.60;;;;;;5040635;28;20272;-62
2023/08/11 12:33:43;;;;;;;1.93;1.50;;;34.20;51.20;;;;;;5042808;28;20203;-61
2023/08/11 12:36:10;;;;;;;3.58;1.80;;;34.20;51.00;;;;;;5037951;28;20211;-61
2023/08/11 12:38:37;;;;;;;3.33;1.90;;;34.20;51.10;;;;;;5045394;28;20228;-61
2023/08/11 12:41:04;;;;;;;1.77;1.63;;;34.30;51.20;;;;;;5048265;28;20200;-62
2023/08/11 12:43:32;;;;;;;3.70;1.50;;;34.30;50.70;;;;;;5041148;28;20235;-61
2023/08/11 12:45:59;;;;;;;1.70;1.60;;;34.40;50.60;;;;;;5042706;28;20218;-61
2023/08/11 12:48:26;;;;;;;2.13;1.60;;;34.50;50.90;;;;;;5047358;28;20217;-61
2023/08/11 12:50:53;;;;;;;7.32;2.20;;;34.50;50.00;;;;;;5040065;28;20291;-62
2023/08/11 12:53:21;;;;;;;2.90;1.83;;;34.50;49.10;;;;;;5042740;28;20723;-61